createdAt,value
2023-02-24T00:00:41.725Z,-0.69
2023-02-24T00:03:14.188Z,-0.72
2023-02-24T00:05:49.172Z,-0.74
2023-02-24T00:08:21.606Z,-0.68
2023-02-24T00:10:54.249Z,-0.66
2023-02-24T00:13:27.021Z,-0.70
2023-02-24T00:16:02.949Z,-0.72
2023-02-24T00:18:36.513Z,-0.72
2023-02-24T00:21:17.055Z,-0.63
2023-02-24T00:23:49.503Z,-0.60
2023-02-24T00:26:21.909Z,-0.61
2023-02-24T00:28:55.609Z,-0.60
2023-02-24T00:31:30.497Z,-0.59
2023-02-24T00:34:03.264Z,-0.58
2023-02-24T00:36:36.190Z,-0.63
2023-02-24T00:39:10.193Z,-0.69
2023-02-24T00:41:45.079Z,-0.68
2023-02-24T00:44:17.626Z,-0.65
2023-02-24T00:46:49.930Z,-0.64
2023-02-24T00:49:24.253Z,-0.60
2023-02-24T00:51:56.193Z,-0.58
2023-02-24T00:54:28.553Z,-0.60
2023-02-24T00:57:02.968Z,-0.61
2023-02-24T00:59:36.315Z,-0.63
2023-02-24T01:02:08.934Z,-0.62
2023-02-24T01:04:43.645Z,-0.59
2023-02-24T01:07:17.797Z,-0.58
2023-02-24T01:09:51.938Z,-0.58
2023-02-24T01:12:41.122Z,-0.54
2023-02-24T01:15:14.561Z,-0.51
2023-02-24T01:17:47.362Z,-0.44
2023-02-24T01:20:20.791Z,-0.38
2023-02-24T01:22:53.694Z,-0.32
2023-02-24T01:25:27.965Z,-0.27
2023-02-24T01:28:00.651Z,-0.24
2023-02-24T01:30:34.107Z,-0.26
2023-02-24T01:33:08.295Z,-0.30
2023-02-24T01:35:42.841Z,-0.34
2023-02-24T01:38:16.335Z,-0.34
2023-02-24T01:40:57.253Z,-0.34
2023-02-24T01:43:30.677Z,-0.34
2023-02-24T01:46:03.436Z,-0.37
2023-02-24T01:48:36.370Z,-0.41
2023-02-24T01:51:08.853Z,-0.37
2023-02-24T01:53:41.160Z,-0.31
2023-02-24T01:56:13.903Z,-0.27
2023-02-24T01:58:46.216Z,-0.32
2023-02-24T02:01:20.736Z,-0.34
2023-02-24T02:03:52.560Z,-0.34
2023-02-24T02:06:24.870Z,-0.31
2023-02-24T02:08:57.885Z,-0.30
2023-02-24T02:11:30.386Z,-0.25
2023-02-24T02:14:04.690Z,-0.27
2023-02-24T02:17:18.656Z,-0.25
2023-02-24T02:20:24.316Z,-0.25
2023-02-24T02:23:29.708Z,-0.30
2023-02-24T02:26:40.588Z,-0.28
2023-02-24T02:30:03.729Z,-0.21
2023-02-24T02:33:00.873Z,-0.21
2023-02-24T02:36:00.842Z,-0.15
2023-02-24T02:38:54.710Z,-0.11
2023-02-24T02:41:37.592Z,-0.05
2023-02-24T02:44:26.561Z,-0.04
2023-02-24T02:47:26.602Z,0.01
2023-02-24T02:50:21.731Z,0.01
2023-02-24T02:53:07.556Z,0.03
2023-02-24T02:55:44.095Z,0.04
2023-02-24T02:58:28.267Z,0.08
2023-02-24T03:01:02.920Z,0.11
2023-02-24T03:03:44.127Z,0.11
2023-02-24T03:06:38.884Z,0.12
2023-02-24T03:09:18.257Z,0.08
2023-02-24T03:11:54.822Z,0.09
2023-02-24T03:14:30.808Z,0.04
2023-02-24T03:17:04.606Z,0.00
2023-02-24T03:19:40.215Z,0.00
2023-02-24T03:22:20.960Z,-0.02
2023-02-24T03:24:53.404Z,-0.04
2023-02-24T03:27:41.406Z,-0.06
2023-02-24T03:30:36.091Z,-0.04
2023-02-24T03:33:17.246Z,-0.05
2023-02-24T03:35:51.440Z,-0.05
2023-02-24T03:38:24.571Z,0.00
2023-02-24T03:40:57.353Z,0.07
2023-02-24T03:43:34.021Z,0.10
2023-02-24T03:46:07.879Z,0.12
2023-02-24T03:48:58.581Z,0.12
2023-02-24T03:51:31.776Z,0.16
2023-02-24T03:54:28.429Z,0.20
2023-02-24T03:57:30.672Z,0.24
2023-02-24T04:00:24.247Z,0.26
2023-02-24T04:03:26.888Z,0.27
2023-02-24T04:06:18.567Z,0.24
2023-02-24T04:09:09.062Z,0.27
2023-02-24T04:11:51.001Z,0.24
2023-02-24T04:14:35.896Z,0.27
2023-02-24T04:17:20.644Z,0.23
2023-02-24T04:19:57.034Z,0.24
2023-02-24T04:22:30.211Z,0.27
2023-02-24T04:25:05.080Z,0.26
2023-02-24T04:27:38.053Z,0.28
2023-02-24T04:30:13.567Z,0.31
2023-02-24T04:32:47.727Z,0.33
2023-02-24T04:35:22.987Z,0.32
2023-02-24T04:37:55.474Z,0.30
2023-02-24T04:40:28.556Z,0.29
2023-02-24T04:43:00.966Z,0.30
2023-02-24T04:45:33.932Z,0.29
2023-02-24T04:48:08.171Z,0.33
2023-02-24T04:50:43.388Z,0.35
2023-02-24T04:53:18.177Z,0.39
2023-02-24T04:55:50.566Z,0.39
2023-02-24T04:58:26.968Z,0.40
2023-02-24T05:01:13.169Z,0.43
2023-02-24T05:03:47.787Z,0.44
2023-02-24T05:06:20.207Z,0.42
2023-02-24T05:08:52.572Z,0.43
2023-02-24T05:11:25.263Z,0.48
2023-02-24T05:13:57.691Z,0.50
2023-02-24T05:16:30.093Z,0.49
2023-02-24T05:19:20.122Z,0.44
2023-02-24T05:21:52.485Z,0.44
2023-02-24T05:24:29.309Z,0.41
2023-02-24T05:27:03.353Z,0.43
2023-02-24T05:29:36.572Z,0.44
2023-02-24T05:32:09.075Z,0.43
2023-02-24T05:34:42.840Z,0.43
2023-02-24T05:37:16.866Z,0.46
2023-02-24T05:39:49.256Z,0.50
2023-02-24T05:42:22.138Z,0.52
2023-02-24T05:44:54.673Z,0.53
2023-02-24T05:47:27.907Z,0.54
2023-02-24T05:50:00.575Z,0.61
2023-02-24T05:52:35.391Z,0.68
2023-02-24T05:55:09.923Z,0.70
2023-02-24T05:57:43.892Z,0.70
2023-02-24T06:00:17.421Z,0.72
2023-02-24T06:02:50.617Z,0.74
2023-02-24T06:05:25.970Z,0.79
2023-02-24T06:08:10.077Z,0.78
2023-02-24T06:10:45.640Z,0.81
2023-02-24T06:13:18.590Z,0.84
2023-02-24T06:15:58.252Z,0.89
2023-02-24T06:18:30.958Z,0.91
2023-02-24T06:21:04.601Z,0.92
2023-02-24T06:23:37.048Z,0.91
2023-02-24T06:26:18.115Z,0.93
2023-02-24T06:28:55.465Z,0.97
2023-02-24T06:31:28.424Z,0.98
2023-02-24T06:34:00.899Z,1.02
2023-02-24T06:36:33.410Z,1.04
2023-02-24T06:39:12.172Z,1.07
2023-02-24T06:41:44.890Z,1.07
2023-02-24T06:44:17.802Z,1.07
2023-02-24T06:46:50.583Z,1.08
2023-02-24T06:49:23.785Z,1.13
2023-02-24T06:51:57.798Z,1.16
2023-02-24T06:54:33.193Z,1.15
2023-02-24T06:57:05.805Z,1.20
2023-02-24T06:59:38.264Z,1.23
2023-02-24T07:02:11.865Z,1.28
2023-02-24T07:04:44.462Z,1.29
2023-02-24T07:07:17.759Z,1.33
2023-02-24T07:09:51.899Z,1.34
2023-02-24T07:12:24.492Z,1.36
2023-02-24T07:14:56.974Z,1.36
2023-02-24T07:17:29.855Z,1.37
2023-02-24T07:20:04.112Z,1.35
2023-02-24T07:22:36.720Z,1.37
2023-02-24T07:25:11.518Z,1.43
2023-02-24T07:27:45.484Z,1.51
2023-02-24T07:30:18.715Z,1.55
2023-02-24T07:32:53.444Z,1.60
2023-02-24T07:35:25.815Z,1.60
2023-02-24T07:38:00.013Z,1.62
2023-02-24T07:40:34.247Z,1.67
2023-02-24T07:43:06.789Z,1.71
2023-02-24T07:45:39.561Z,1.75
2023-02-24T07:48:13.874Z,1.79
2023-02-24T07:50:46.425Z,1.83
2023-02-24T07:53:19.197Z,1.87
2023-02-24T07:55:53.690Z,1.90
2023-02-24T07:58:28.506Z,1.90
2023-02-24T08:01:04.896Z,1.94
2023-02-24T08:03:39.332Z,1.98
2023-02-24T08:06:19.767Z,2.03
2023-02-24T08:09:02.889Z,2.06
2023-02-24T08:11:37.165Z,2.09
2023-02-24T08:14:11.988Z,2.14
2023-02-24T08:16:44.821Z,2.15
2023-02-24T08:19:23.517Z,2.20
2023-02-24T08:21:57.713Z,2.17
2023-02-24T08:24:30.195Z,2.16
2023-02-24T08:27:05.816Z,2.15
2023-02-24T08:29:43.731Z,2.16
2023-02-24T08:32:19.045Z,2.16
2023-02-24T08:34:50.873Z,2.19
2023-02-24T08:37:24.403Z,2.27
2023-02-24T08:39:56.723Z,2.27
2023-02-24T08:42:30.916Z,2.31
2023-02-24T08:45:04.258Z,2.34
2023-02-24T08:47:37.046Z,2.34
2023-02-24T08:50:11.668Z,2.35
2023-02-24T08:52:45.072Z,2.38
2023-02-24T08:55:19.101Z,2.41
2023-02-24T08:57:54.365Z,2.46
2023-02-24T09:00:28.605Z,2.53
2023-02-24T09:03:00.414Z,2.59
2023-02-24T09:05:33.601Z,2.61
2023-02-24T09:08:07.012Z,2.62
2023-02-24T09:10:41.169Z,2.65
2023-02-24T09:13:13.594Z,2.68
2023-02-24T09:15:46.020Z,2.65
2023-02-24T09:18:18.524Z,2.65
2023-02-24T09:20:59.460Z,2.68
2023-02-24T09:23:33.561Z,2.68
2023-02-24T09:26:08.057Z,2.71
2023-02-24T09:28:42.365Z,2.74
2023-02-24T09:31:17.628Z,2.77
2023-02-24T09:33:51.357Z,2.83
2023-02-24T09:36:30.389Z,2.85
2023-02-24T09:39:02.689Z,2.84
2023-02-24T09:41:56.321Z,2.84
2023-02-24T09:44:39.325Z,2.86
2023-02-24T09:47:43.952Z,2.88
2023-02-24T09:50:59.604Z,2.93
2023-02-24T09:53:20.051Z,2.99
2023-02-24T09:56:02.890Z,3.02
2023-02-24T09:58:53.337Z,3.07
2023-02-24T10:01:45.516Z,3.11
2023-02-24T10:04:47.910Z,3.15
2023-02-24T10:07:34.342Z,3.20
2023-02-24T10:10:24.845Z,3.24
2023-02-24T10:13:18.736Z,3.28
2023-02-24T10:16:06.217Z,3.32
2023-02-24T10:18:40.524Z,3.37
2023-02-24T10:21:33.325Z,3.40
2023-02-24T10:24:20.982Z,3.35
2023-02-24T10:27:09.264Z,3.36
2023-02-24T10:29:55.299Z,3.38
2023-02-24T10:32:34.105Z,3.39
2023-02-24T10:35:11.235Z,3.42
2023-02-24T10:37:43.914Z,3.43
2023-02-24T10:40:18.459Z,3.42
2023-02-24T10:42:50.033Z,3.41
2023-02-24T10:45:25.584Z,3.43
2023-02-24T10:48:00.447Z,3.48
2023-02-24T10:50:55.328Z,3.54
2023-02-24T10:53:36.860Z,3.51
2023-02-24T10:56:29.629Z,3.51
2023-02-24T10:59:23.033Z,3.50
2023-02-24T11:01:59.432Z,3.53
2023-02-24T11:04:37.654Z,3.56
2023-02-24T11:07:20.798Z,3.55
2023-02-24T11:10:13.788Z,3.51
2023-02-24T11:13:10.201Z,3.50
2023-02-24T11:16:06.669Z,3.52
2023-02-24T11:18:40.184Z,3.50
2023-02-24T11:21:14.183Z,3.50
2023-02-24T11:23:48.366Z,3.51
2023-02-24T11:26:33.791Z,3.53
2023-02-24T11:29:35.946Z,3.54
2023-02-24T11:32:31.385Z,3.55
2023-02-24T11:35:20.851Z,3.56
2023-02-24T11:38:33.797Z,3.58
2023-02-24T11:41:17.278Z,3.61
2023-02-24T11:43:57.642Z,3.63
2023-02-24T11:46:52.303Z,3.61
2023-02-24T11:49:31.886Z,3.62
2023-02-24T11:52:05.624Z,3.63
2023-02-24T11:54:42.460Z,3.68
2023-02-24T11:57:37.068Z,3.68
2023-02-24T12:00:21.259Z,3.70
2023-02-24T12:03:18.934Z,3.78
2023-02-24T12:05:56.520Z,3.81
2023-02-24T12:08:35.528Z,3.82
2023-02-24T12:11:38.536Z,3.79
2023-02-24T12:14:39.473Z,3.80
2023-02-24T12:17:28.602Z,3.85
2023-02-24T12:20:40.612Z,3.93
2023-02-24T12:23:34.254Z,4.03
2023-02-24T12:26:20.020Z,4.10
2023-02-24T12:29:49.712Z,4.08
2023-02-24T12:33:10.439Z,4.03
2023-02-24T12:36:05.123Z,4.05
2023-02-24T12:39:07.460Z,4.07
2023-02-24T12:42:10.898Z,4.04
2023-02-24T12:45:03.417Z,3.98
2023-02-24T12:47:49.236Z,3.91
2023-02-24T12:50:38.250Z,3.88
2023-02-24T12:53:41.704Z,3.90
2023-02-24T12:56:31.353Z,3.87
2023-02-24T12:59:05.630Z,3.85
2023-02-24T13:01:56.830Z,3.85
2023-02-24T13:05:09.278Z,3.86
2023-02-24T13:07:46.813Z,3.89
2023-02-24T13:10:32.636Z,3.89
2023-02-24T13:13:33.430Z,3.98
2023-02-24T13:16:06.150Z,4.02
2023-02-24T13:18:42.040Z,4.03
2023-02-24T13:21:24.999Z,4.02
2023-02-24T13:24:02.163Z,4.08
2023-02-24T13:26:34.850Z,4.21
2023-02-24T13:29:15.661Z,4.23
2023-02-24T13:31:50.596Z,4.22
2023-02-24T13:34:45.431Z,4.18
2023-02-24T13:37:19.569Z,4.15
2023-02-24T13:39:51.887Z,4.18
2023-02-24T13:42:31.422Z,4.24
2023-02-24T13:45:14.855Z,4.19
2023-02-24T13:48:27.582Z,4.18
2023-02-24T13:51:05.929Z,4.16
2023-02-24T13:54:11.364Z,4.16
2023-02-24T13:56:45.613Z,4.18
2023-02-24T13:59:41.080Z,4.14
2023-02-24T14:02:22.113Z,4.12
2023-02-24T14:04:56.980Z,4.10
2023-02-24T14:07:35.190Z,4.10
2023-02-24T14:10:20.789Z,4.11
2023-02-24T14:13:07.308Z,4.09
2023-02-24T14:15:42.228Z,4.07
2023-02-24T14:18:27.338Z,4.06
2023-02-24T14:21:00.098Z,4.07
2023-02-24T14:23:35.021Z,4.04
2023-02-24T14:26:09.747Z,3.98
2023-02-24T14:28:43.640Z,3.97
2023-02-24T14:31:17.108Z,3.94
2023-02-24T14:33:51.513Z,3.93
2023-02-24T14:36:31.885Z,3.93
2023-02-24T14:39:12.084Z,3.91
2023-02-24T14:41:44.829Z,3.90
2023-02-24T14:44:28.163Z,3.88
2023-02-24T14:47:03.396Z,3.89
2023-02-24T14:49:37.004Z,3.88
2023-02-24T14:52:23.312Z,3.83
2023-02-24T14:55:22.009Z,3.82
2023-02-24T14:58:09.777Z,3.82
2023-02-24T15:01:04.179Z,3.79
2023-02-24T15:03:46.556Z,3.77
2023-02-24T15:06:26.255Z,3.79
2023-02-24T15:09:05.030Z,3.79
2023-02-24T15:11:37.638Z,3.84
2023-02-24T15:14:22.109Z,3.84
2023-02-24T15:17:03.488Z,3.86
2023-02-24T15:19:42.216Z,3.88
2023-02-24T15:22:29.650Z,3.90
2023-02-24T15:25:40.689Z,3.92
2023-02-24T15:28:03.721Z,3.93
2023-02-24T15:30:42.135Z,3.94
2023-02-24T15:33:23.253Z,3.97
2023-02-24T15:36:00.283Z,4.00
2023-02-24T15:38:39.785Z,4.02
2023-02-24T15:41:12.912Z,4.04
2023-02-24T15:43:55.711Z,4.05
2023-02-24T15:46:31.699Z,4.06
2023-02-24T15:49:05.744Z,4.07
2023-02-24T15:51:48.350Z,4.10
2023-02-24T15:54:27.769Z,4.12
2023-02-24T15:57:01.475Z,4.12
2023-02-24T15:59:34.071Z,4.13
2023-02-24T16:02:21.819Z,4.16
2023-02-24T16:04:54.441Z,4.21
2023-02-24T16:07:32.851Z,4.22
2023-02-24T16:10:05.882Z,4.22
2023-02-24T16:12:42.997Z,4.24
2023-02-24T16:15:20.415Z,4.25
2023-02-24T16:17:53.279Z,4.28
2023-02-24T16:20:31.188Z,4.32
2023-02-24T16:23:05.762Z,4.33
2023-02-24T16:25:41.734Z,4.33
2023-02-24T16:28:20.237Z,4.34
2023-02-24T16:30:53.396Z,4.37
2023-02-24T16:33:25.997Z,4.39
2023-02-24T16:35:58.461Z,4.40
2023-02-24T16:38:31.072Z,4.40
2023-02-24T16:41:03.389Z,4.42
2023-02-24T16:43:37.993Z,4.44
2023-02-24T16:46:15.264Z,4.45
2023-02-24T16:48:50.153Z,4.46
2023-02-24T16:51:22.982Z,4.46
2023-02-24T16:53:55.998Z,4.46
2023-02-24T16:56:28.307Z,4.47
2023-02-24T16:59:01.548Z,4.53
2023-02-24T17:01:34.500Z,4.55
2023-02-24T17:04:09.956Z,4.55
2023-02-24T17:06:44.219Z,4.56
2023-02-24T17:09:18.211Z,4.57
2023-02-24T17:11:50.527Z,4.59
2023-02-24T17:14:23.271Z,4.58
2023-02-24T17:16:56.702Z,4.57
2023-02-24T17:19:29.748Z,4.56
2023-02-24T17:22:02.215Z,4.56
2023-02-24T17:24:34.763Z,4.61
2023-02-24T17:27:07.997Z,4.64
2023-02-24T17:29:41.969Z,4.62
2023-02-24T17:32:15.322Z,4.63
2023-02-24T17:34:48.691Z,4.64
2023-02-24T17:37:21.146Z,4.64
2023-02-24T17:39:54.070Z,4.63
2023-02-24T17:42:26.637Z,4.64
2023-02-24T17:44:59.011Z,4.63
2023-02-24T17:47:32.521Z,4.60
2023-02-24T17:50:06.761Z,4.58
2023-02-24T17:52:38.646Z,4.56
2023-02-24T17:55:11.310Z,4.55
2023-02-24T17:57:43.831Z,4.54
2023-02-24T18:00:17.145Z,4.52
2023-02-24T18:02:49.608Z,4.48
2023-02-24T18:05:22.091Z,4.44
2023-02-24T18:07:57.348Z,4.40
2023-02-24T18:10:30.004Z,4.37
2023-02-24T18:13:02.405Z,4.36
2023-02-24T18:15:37.249Z,4.36
2023-02-24T18:18:09.739Z,4.40
2023-02-24T18:20:45.009Z,4.41
2023-02-24T18:23:17.679Z,4.41
2023-02-24T18:25:50.838Z,4.43
2023-02-24T18:28:23.219Z,4.42
2023-02-24T18:30:56.116Z,4.42
2023-02-24T18:33:29.604Z,4.43
2023-02-24T18:36:02.061Z,4.44
2023-02-24T18:38:35.976Z,4.47
2023-02-24T18:41:14.350Z,4.49
2023-02-24T18:43:52.754Z,4.51
2023-02-24T18:46:26.548Z,4.50
2023-02-24T18:48:59.889Z,4.49
2023-02-24T18:51:33.822Z,4.52
2023-02-24T18:54:06.406Z,4.56
2023-02-24T18:56:39.381Z,4.59
2023-02-24T18:59:12.786Z,4.61
2023-02-24T19:01:45.824Z,4.64
2023-02-24T19:04:18.255Z,4.65
2023-02-24T19:06:51.331Z,4.66
2023-02-24T19:09:23.992Z,4.65
2023-02-24T19:11:56.284Z,4.67
2023-02-24T19:14:29.495Z,4.67
2023-02-24T19:17:02.134Z,4.71
2023-02-24T19:19:35.105Z,4.73
2023-02-24T19:22:07.553Z,4.77
2023-02-24T19:24:40.474Z,4.79
2023-02-24T19:27:14.127Z,4.77
2023-02-24T19:29:47.287Z,4.80
2023-02-24T19:32:19.808Z,4.80
2023-02-24T19:34:52.955Z,4.82
2023-02-24T19:37:26.426Z,4.81
2023-02-24T19:39:58.746Z,4.81
2023-02-24T19:42:32.174Z,4.80
2023-02-24T19:45:05.577Z,4.79
2023-02-24T19:47:41.140Z,4.78
2023-02-24T19:50:17.238Z,4.80
2023-02-24T19:52:49.707Z,4.82
2023-02-24T19:55:22.044Z,4.83
2023-02-24T19:57:56.262Z,4.83
2023-02-24T20:00:28.750Z,4.83
2023-02-24T20:03:01.076Z,4.85
2023-02-24T20:05:35.155Z,4.87
2023-02-24T20:08:07.765Z,4.87
2023-02-24T20:10:40.488Z,4.85
2023-02-24T20:13:14.528Z,4.86
2023-02-24T20:15:46.884Z,4.86
2023-02-24T20:18:20.959Z,4.90
2023-02-24T20:20:59.749Z,4.96
2023-02-24T20:23:33.530Z,5.01
2023-02-24T20:26:06.761Z,5.03
2023-02-24T20:28:40.644Z,5.04
2023-02-24T20:31:16.121Z,5.05
2023-02-24T20:33:49.561Z,5.06
2023-02-24T20:36:25.101Z,5.08
2023-02-24T20:39:00.268Z,5.08
2023-02-24T20:41:32.557Z,5.08
2023-02-24T20:44:05.255Z,5.11
2023-02-24T20:46:37.803Z,5.10
2023-02-24T20:49:12.064Z,5.10
2023-02-24T20:51:44.557Z,5.10
2023-02-24T20:54:17.000Z,5.09
2023-02-24T20:56:49.720Z,5.08
2023-02-24T20:59:22.863Z,5.08
2023-02-24T21:01:55.880Z,5.10
2023-02-24T21:04:28.446Z,5.07
2023-02-24T21:07:01.111Z,5.08
2023-02-24T21:09:35.871Z,5.08
2023-02-24T21:12:08.306Z,5.03
2023-02-24T21:14:42.881Z,5.02
2023-02-24T21:17:15.350Z,5.04
2023-02-24T21:19:48.301Z,5.06
2023-02-24T21:22:20.986Z,5.05
2023-02-24T21:24:53.474Z,5.02
2023-02-24T21:27:26.430Z,5.03
2023-02-24T21:29:59.058Z,5.05
2023-02-24T21:32:31.740Z,5.06
2023-02-24T21:35:04.243Z,5.05
2023-02-24T21:37:37.671Z,5.05
2023-02-24T21:40:13.775Z,5.04
2023-02-24T21:42:47.633Z,5.04
2023-02-24T21:45:20.218Z,5.02
2023-02-24T21:47:53.566Z,5.01
2023-02-24T21:50:25.896Z,5.05
2023-02-24T21:52:58.257Z,5.08
2023-02-24T21:55:30.958Z,5.08
2023-02-24T21:58:04.550Z,5.08
2023-02-24T22:00:38.019Z,5.05
2023-02-24T22:03:11.061Z,5.07
2023-02-24T22:05:49.930Z,5.10
2023-02-24T22:08:22.650Z,5.10
2023-02-24T22:11:01.625Z,5.09
2023-02-24T22:13:34.020Z,5.06
2023-02-24T22:16:09.082Z,5.07
2023-02-24T22:18:41.525Z,5.09
2023-02-24T22:21:17.626Z,5.10
2023-02-24T22:23:51.772Z,5.09
2023-02-24T22:26:25.513Z,5.11
2023-02-24T22:28:58.369Z,5.14
2023-02-24T22:31:33.162Z,5.13
2023-02-24T22:34:06.267Z,5.11
2023-02-24T22:36:39.491Z,5.09
2023-02-24T22:39:13.779Z,5.10
2023-02-24T22:41:47.620Z,5.14
2023-02-24T22:44:21.184Z,5.16
2023-02-24T22:46:54.042Z,5.18
2023-02-24T22:49:27.213Z,5.18
2023-02-24T22:51:59.955Z,5.17
2023-02-24T22:54:32.446Z,5.18
2023-02-24T22:57:04.829Z,5.20
2023-02-24T22:59:37.240Z,5.20
2023-02-24T23:02:10.318Z,5.21
2023-02-24T23:04:44.132Z,5.20
2023-02-24T23:07:16.931Z,5.18
2023-02-24T23:09:50.884Z,5.18
2023-02-24T23:12:23.252Z,5.17
2023-02-24T23:14:55.653Z,5.13
2023-02-24T23:17:28.703Z,5.12
2023-02-24T23:20:02.102Z,5.10
2023-02-24T23:22:34.719Z,5.06
2023-02-24T23:25:10.037Z,5.04
2023-02-24T23:27:43.067Z,5.03
2023-02-24T23:30:15.894Z,5.04
2023-02-24T23:32:48.485Z,5.06
2023-02-24T23:35:20.830Z,5.06
2023-02-24T23:37:53.150Z,5.05
2023-02-24T23:40:26.409Z,5.07
2023-02-24T23:42:59.191Z,5.08
2023-02-24T23:45:31.760Z,5.09
2023-02-24T23:48:04.465Z,5.08
2023-02-24T23:50:38.999Z,5.07
2023-02-24T23:53:11.749Z,5.07
2023-02-24T23:55:44.676Z,5.05
2023-02-24T23:58:17.954Z,5.08
